Time;durP1;ratioP1;P1;durP2;ratioP2;P2;SDS_P1;SDS_P2;PMS_P1;PMS_P2;Temp;Humidity;BMP_temperature;BMP_pressure;BME280_temperature;BME280_humidity;BME280_pressure;Samples;Min_cycle;Max_cycle;Signal;HPM_P1;HPM_P2
2022/05/24 00:01:18;;;;;;;3.72;1.60;;;;;;;;;;5041296;28;20190;-69
2022/05/24 00:03:44;;;;;;;1.70;1.40;;;;;;;;;;5034392;28;20191;-69
2022/05/24 00:06:10;;;;;;;2.97;1.60;;;;;;;;;;5007794;28;20534;-69
2022/05/24 00:08:36;;;;;;;3.00;1.55;;;;;;;;;;5027825;28;20210;-69
2022/05/24 00:11:02;;;;;;;3.25;1.70;;;;;;;;;;5036671;28;20657;-70
2022/05/24 00:13:28;;;;;;;2.17;1.23;;;;;;;;;;5035321;28;20932;-70
2022/05/24 00:15:54;;;;;;;2.50;1.50;;;;;;;;;;5015729;28;20193;-68
2022/05/24 00:18:22;;;;;;;2.70;1.60;;;;;;;;;;5040573;28;20210;-68
2022/05/24 00:20:53;;;;;;;2.63;1.65;;;;;;;;;;5032530;28;20183;-70
2022/05/24 00:23:21;;;;;;;2.72;1.40;;;;;;;;;;5026445;28;20224;-68
2022/05/24 00:25:48;;;;;;;3.03;1.40;;;;;;;;;;5025857;28;20706;-69
2022/05/24 00:28:15;;;;;;;1.60;1.50;;;;;;;;;;5026354;28;20202;-71
2022/05/24 00:30:42;;;;;;;1.77;1.60;;;;;;;;;;5035075;28;20178;-69
2022/05/24 00:33:08;;;;;;;3.38;1.63;;;;;;;;;;5037972;28;20198;-70
2022/05/24 00:35:35;;;;;;;3.17;1.73;;;;;;;;;;5038168;28;20638;-69
2022/05/24 00:38:01;;;;;;;2.15;1.65;;;;;;;;;;5013905;28;20214;-69
2022/05/24 00:40:45;;;;;;;2.35;1.63;;;;;;;;;;5039833;28;20209;-70
2022/05/24 00:43:17;;;;;;;2.15;1.35;;;;;;;;;;5035166;28;20240;-68
2022/05/24 00:45:46;;;;;;;2.85;1.48;;;;;;;;;;5034682;28;20186;-70
2022/05/24 00:48:28;;;;;;;3.08;1.45;;;;;;;;;;5038913;28;20233;-70
2022/05/24 00:50:54;;;;;;;2.00;1.42;;;;;;;;;;5026382;28;20191;-69
2022/05/24 00:53:25;;;;;;;3.13;1.30;;;;;;;;;;5032059;28;20232;-69
2022/05/24 00:55:55;;;;;;;3.45;1.55;;;;;;;;;;5033635;28;20547;-70
2022/05/24 00:58:24;;;;;;;1.25;1.15;;;;;;;;;;5030808;28;20297;-68
2022/05/24 01:00:51;;;;;;;1.80;1.42;;;;;;;;;;5035190;28;20186;-68
2022/05/24 01:03:17;;;;;;;3.65;1.88;;;;;;;;;;5024746;28;20558;-69
2022/05/24 01:05:43;;;;;;;1.95;1.80;;;;;;;;;;5036272;28;20217;-70
2022/05/24 01:08:13;;;;;;;3.67;2.58;;;;;;;;;;5038353;28;20265;-69
2022/05/24 01:10:41;;;;;;;2.47;2.28;;;;;;;;;;5033514;28;20182;-69
2022/05/24 01:13:10;;;;;;;2.95;2.75;;;;;;;;;;5031392;28;20669;-68
2022/05/24 01:15:36;;;;;;;2.78;2.58;;;;;;;;;;5039402;28;20190;-70
2022/05/24 01:18:02;;;;;;;3.08;2.78;;;;;;;;;;5026978;28;20214;-70
2022/05/24 01:20:28;;;;;;;2.40;2.20;;;;;;;;;;5031816;28;20191;-68
2022/05/24 01:23:21;;;;;;;2.80;2.60;;;;;;;;;;5035470;28;20189;-68
2022/05/24 01:25:55;;;;;;;3.17;2.45;;;;;;;;;;4994578;28;20591;-71
2022/05/24 01:28:21;;;;;;;2.55;2.35;;;;;;;;;;5029298;28;20234;-71
2022/05/24 01:30:47;;;;;;;2.65;2.45;;;;;;;;;;5023824;28;20229;-70
2022/05/24 01:36:10;;;;;;;2.65;2.40;;;;;;;;;;5033582;28;20201;-69
2022/05/24 01:38:38;;;;;;;2.80;2.47;;;;;;;;;;5026167;28;20217;-69
2022/05/24 01:41:04;;;;;;;2.55;2.35;;;;;;;;;;5024265;28;20198;-70
2022/05/24 01:43:30;;;;;;;3.20;2.90;;;;;;;;;;5030114;28;20187;-69
2022/05/24 01:46:02;;;;;;;2.63;2.42;;;;;;;;;;5032575;28;20182;-71
2022/05/24 01:48:32;;;;;;;2.60;2.40;;;;;;;;;;5032330;28;20217;-69
2022/05/24 01:50:59;;;;;;;3.25;2.90;;;;;;;;;;5039445;28;20693;-70
2022/05/24 01:53:28;;;;;;;3.55;2.97;;;;;;;;;;5032343;28;20654;-68
2022/05/24 01:55:56;;;;;;;3.90;3.53;;;;;;;;;;5030077;28;20670;-70
2022/05/24 01:58:26;;;;;;;3.90;3.60;;;;;;;;;;5030461;28;21084;-69
2022/05/24 02:01:08;;;;;;;4.28;3.55;;;;;;;;;;5028728;28;20270;-72
2022/05/24 02:03:34;;;;;;;4.90;3.45;;;;;;;;;;5027789;28;20236;-69
2022/05/24 02:06:00;;;;;;;4.10;3.70;;;;;;;;;;5032296;28;20265;-71
2022/05/24 02:08:26;;;;;;;4.97;4.30;;;;;;;;;;5029057;28;20214;-69
2022/05/24 02:10:55;;;;;;;4.78;4.38;;;;;;;;;;5036716;28;20738;-68
2022/05/24 02:13:32;;;;;;;5.22;4.82;;;;;;;;;;5033848;28;20592;-69
2022/05/24 02:16:00;;;;;;;6.30;5.70;;;;;;;;;;5035928;28;20231;-69
2022/05/24 02:18:27;;;;;;;6.30;5.70;;;;;;;;;;5033836;28;20256;-69
2022/05/24 02:20:53;;;;;;;8.07;6.38;;;;;;;;;;5026989;28;20273;-69
2022/05/24 02:23:19;;;;;;;5.93;5.43;;;;;;;;;;5030145;28;20187;-70
2022/05/24 02:25:56;;;;;;;6.20;5.32;;;;;;;;;;5019876;28;20218;-70
2022/05/24 02:28:29;;;;;;;5.22;4.72;;;;;;;;;;5033661;28;20206;-70
2022/05/24 02:30:57;;;;;;;5.97;5.32;;;;;;;;;;5035061;28;20216;-70
2022/05/24 02:33:23;;;;;;;6.05;5.38;;;;;;;;;;5027685;28;20225;-68
2022/05/24 02:35:49;;;;;;;6.43;5.82;;;;;;;;;;5038868;28;20190;-68
2022/05/24 02:38:16;;;;;;;5.70;5.20;;;;;;;;;;5030530;28;20711;-70
2022/05/24 02:43:27;;;;;;;6.40;5.50;;;;;;;;;;5032275;28;20201;-69
2022/05/24 02:45:53;;;;;;;5.68;5.18;;;;;;;;;;5031810;28;20182;-70
2022/05/24 02:48:19;;;;;;;7.38;6.22;;;;;;;;;;5039546;28;20685;-68
2022/05/24 02:50:46;;;;;;;6.97;6.20;;;;;;;;;;5034850;28;20243;-70
2022/05/24 02:53:12;;;;;;;7.28;6.05;;;;;;;;;;5033154;28;20187;-69
2022/05/24 02:55:38;;;;;;;6.32;5.45;;;;;;;;;;5034146;28;20187;-71
2022/05/24 02:58:04;;;;;;;6.18;5.68;;;;;;;;;;5033436;28;20305;-71
2022/05/24 03:00:31;;;;;;;7.20;5.60;;;;;;;;;;5038291;28;20179;-70
2022/05/24 03:02:57;;;;;;;6.82;6.20;;;;;;;;;;5039244;28;20245;-69
2022/05/24 03:05:24;;;;;;;6.18;5.57;;;;;;;;;;5039329;28;20174;-69
2022/05/24 03:10:35;;;;;;;5.75;5.28;;;;;;;;;;5036113;28;20228;-68
2022/05/24 03:15:47;;;;;;;6.03;5.47;;;;;;;;;;5038402;28;20852;-69
2022/05/24 03:18:13;;;;;;;5.40;5.00;;;;;;;;;;5035438;28;20217;-71
2022/05/24 03:20:40;;;;;;;5.20;4.70;;;;;;;;;;5032398;28;20186;-69
2022/05/24 03:23:07;;;;;;;5.20;4.70;;;;;;;;;;5038706;28;20186;-69
2022/05/24 03:25:33;;;;;;;4.85;4.45;;;;;;;;;;5039113;28;20174;-69
2022/05/24 03:28:00;;;;;;;6.05;5.00;;;;;;;;;;5029832;28;21013;-70
2022/05/24 03:30:26;;;;;;;4.90;4.50;;;;;;;;;;5031956;28;20661;-70
2022/05/24 03:32:52;;;;;;;4.55;4.15;;;;;;;;;;5037139;28;20266;-69
2022/05/24 03:35:19;;;;;;;5.03;4.53;;;;;;;;;;5028880;28;20198;-68
2022/05/24 03:37:45;;;;;;;5.07;4.55;;;;;;;;;;5028965;28;20229;-70
2022/05/24 03:40:11;;;;;;;5.50;5.00;;;;;;;;;;5030117;28;20187;-69
2022/05/24 03:42:38;;;;;;;4.95;4.40;;;;;;;;;;5033294;28;20187;-70
2022/05/24 03:45:05;;;;;;;4.55;4.15;;;;;;;;;;5033326;28;20662;-69
2022/05/24 03:47:31;;;;;;;6.93;4.70;;;;;;;;;;5032911;28;20546;-68
2022/05/24 03:49:57;;;;;;;4.95;3.97;;;;;;;;;;5034689;28;20201;-68
2022/05/24 03:52:23;;;;;;;3.97;3.58;;;;;;;;;;5038880;28;20186;-70
2022/05/24 03:54:49;;;;;;;4.10;3.75;;;;;;;;;;5031792;28;20198;-68
2022/05/24 04:00:00;;;;;;;3.97;3.58;;;;;;;;;;5028522;28;20206;-69
2022/05/24 04:02:26;;;;;;;3.75;3.45;;;;;;;;;;5028718;28;20278;-68
2022/05/24 04:04:52;;;;;;;3.75;3.40;;;;;;;;;;5033265;28;20187;-69
2022/05/24 04:07:18;;;;;;;4.57;3.88;;;;;;;;;;5027086;28;20197;-69
2022/05/24 04:09:45;;;;;;;5.15;3.45;;;;;;;;;;5025417;28;20198;-68
2022/05/24 04:12:11;;;;;;;4.15;3.47;;;;;;;;;;5032794;28;20194;-66
2022/05/24 04:14:37;;;;;;;5.22;3.83;;;;;;;;;;5024822;28;20183;-70
2022/05/24 04:17:03;;;;;;;3.58;3.28;;;;;;;;;;5026836;28;20420;-69
2022/05/24 04:19:29;;;;;;;3.95;3.60;;;;;;;;;;5028210;28;20568;-68
2022/05/24 04:21:55;;;;;;;4.20;3.55;;;;;;;;;;5026715;28;20186;-69
2022/05/24 04:24:21;;;;;;;4.18;3.75;;;;;;;;;;5030372;28;20183;-69
2022/05/24 04:26:48;;;;;;;3.90;3.50;;;;;;;;;;5032995;28;20190;-71
2022/05/24 04:29:14;;;;;;;4.00;3.60;;;;;;;;;;5024935;28;20286;-70
2022/05/24 04:31:40;;;;;;;3.42;3.22;;;;;;;;;;5025811;28;20194;-68
2022/05/24 04:34:06;;;;;;;3.50;3.20;;;;;;;;;;5029120;28;20182;-70
2022/05/24 04:36:32;;;;;;;4.15;3.60;;;;;;;;;;5027137;28;20197;-70
2022/05/24 04:38:59;;;;;;;3.85;3.50;;;;;;;;;;5027022;28;20682;-70
2022/05/24 04:44:10;;;;;;;4.07;3.38;;;;;;;;;;5033959;28;20821;-71
2022/05/24 04:49:23;;;;;;;3.17;2.83;;;;;;;;;;5033688;28;20217;-69
2022/05/24 04:51:52;;;;;;;3.65;3.08;;;;;;;;;;5031863;28;20210;-69
2022/05/24 04:54:18;;;;;;;2.38;2.13;;;;;;;;;;5024818;28;20432;-69
2022/05/24 04:56:46;;;;;;;2.25;2.05;;;;;;;;;;5041433;28;20181;-67
2022/05/24 04:59:12;;;;;;;2.47;2.28;;;;;;;;;;5038191;28;20215;-69
2022/05/24 05:01:38;;;;;;;2.47;2.25;;;;;;;;;;5029002;28;20185;-70
2022/05/24 05:04:04;;;;;;;2.30;2.10;;;;;;;;;;5026112;28;20639;-70
2022/05/24 05:06:30;;;;;;;2.70;2.50;;;;;;;;;;5029827;28;20191;-69
2022/05/24 05:08:56;;;;;;;2.53;2.20;;;;;;;;;;5028319;28;20293;-69
2022/05/24 05:11:22;;;;;;;2.30;2.00;;;;;;;;;;5035458;28;20236;-69
2022/05/24 05:13:48;;;;;;;4.25;2.60;;;;;;;;;;5028485;28;20549;-68
2022/05/24 05:16:14;;;;;;;2.60;2.40;;;;;;;;;;5024053;28;20230;-68
2022/05/24 05:18:40;;;;;;;2.75;2.20;;;;;;;;;;5025202;28;20210;-70
2022/05/24 05:21:06;;;;;;;3.10;2.10;;;;;;;;;;5035857;28;20560;-69
2022/05/24 05:23:32;;;;;;;2.40;2.20;;;;;;;;;;5036020;28;20189;-70
2022/05/24 05:25:58;;;;;;;2.58;2.03;;;;;;;;;;5019567;28;20735;-69
2022/05/24 05:28:24;;;;;;;2.85;2.65;;;;;;;;;;5029371;28;20214;-70
2022/05/24 05:33:35;;;;;;;2.72;2.50;;;;;;;;;;5028881;28;20341;-68
2022/05/24 05:36:01;;;;;;;2.55;2.35;;;;;;;;;;5022307;28;20179;-70
2022/05/24 05:38:27;;;;;;;3.08;2.42;;;;;;;;;;5029119;28;20222;-69
2022/05/24 05:40:54;;;;;;;3.33;3.03;;;;;;;;;;5028199;28;20258;-69
2022/05/24 05:43:20;;;;;;;5.22;2.60;;;;;;;;;;5036520;28;20710;-68
2022/05/24 05:45:56;;;;;;;3.03;2.80;;;;;;;;;;5019239;28;20186;-69
2022/05/24 05:48:22;;;;;;;3.58;3.15;;;;;;;;;;5030988;28;20704;-70
2022/05/24 05:50:49;;;;;;;2.78;2.58;;;;;;;;;;5033285;28;20213;-69
2022/05/24 05:53:15;;;;;;;3.10;2.80;;;;;;;;;;5027759;28;20186;-69
2022/05/24 05:55:42;;;;;;;3.08;2.78;;;;;;;;;;5028034;28;20187;-70
2022/05/24 05:58:08;;;;;;;2.92;2.63;;;;;;;;;;5017326;28;20222;-70
2022/05/24 06:00:35;;;;;;;2.88;2.67;;;;;;;;;;5033139;28;20259;-73
2022/05/24 06:03:01;;;;;;;3.30;3.00;;;;;;;;;;5035004;28;20182;-69
2022/05/24 06:05:27;;;;;;;3.25;3.03;;;;;;;;;;5041336;28;20537;-68
2022/05/24 06:07:55;;;;;;;3.15;2.85;;;;;;;;;;5026835;28;20249;-71
2022/05/24 06:10:21;;;;;;;3.63;2.80;;;;;;;;;;5028750;28;20191;-69
2022/05/24 06:12:47;;;;;;;2.88;2.67;;;;;;;;;;5035125;28;20556;-72
2022/05/24 06:15:13;;;;;;;4.03;3.60;;;;;;;;;;5034639;28;20189;-70
2022/05/24 06:17:47;;;;;;;4.10;3.70;;;;;;;;;;5014972;28;20584;-69
2022/05/24 06:20:13;;;;;;;4.10;3.80;;;;;;;;;;5037626;28;20726;-69
2022/05/24 06:22:39;;;;;;;4.35;3.95;;;;;;;;;;5041829;28;20240;-69
2022/05/24 06:25:06;;;;;;;4.72;4.38;;;;;;;;;;5032343;28;20190;-68
2022/05/24 06:27:32;;;;;;;4.60;4.20;;;;;;;;;;5037331;28;20229;-70
2022/05/24 06:29:57;;;;;;;5.15;4.75;;;;;;;;;;5042863;28;20194;-69
2022/05/24 06:32:23;;;;;;;4.70;4.30;;;;;;;;;;5046285;28;20194;-69
2022/05/24 06:34:52;;;;;;;4.70;4.20;;;;;;;;;;5036872;28;20309;-69
2022/05/24 06:37:18;;;;;;;4.70;4.30;;;;;;;;;;5034882;28;20209;-71
2022/05/24 06:39:45;;;;;;;4.50;4.10;;;;;;;;;;5033239;28;20548;-68
2022/05/24 06:42:11;;;;;;;4.72;4.32;;;;;;;;;;5040233;28;20190;-69
2022/05/24 06:44:37;;;;;;;4.40;4.00;;;;;;;;;;5038577;28;20186;-69
2022/05/24 06:47:03;;;;;;;3.92;3.63;;;;;;;;;;5034572;28;20190;-68
2022/05/24 06:49:29;;;;;;;4.55;3.45;;;;;;;;;;5028043;28;20210;-71
2022/05/24 06:51:55;;;;;;;4.05;3.75;;;;;;;;;;5037837;28;20190;-69
2022/05/24 06:54:21;;;;;;;3.92;3.63;;;;;;;;;;5039055;28;20657;-71
2022/05/24 06:56:47;;;;;;;4.13;3.80;;;;;;;;;;5035351;28;20214;-69
2022/05/24 07:04:42;;;;;;;3.53;3.10;;;;;;;;;;5033160;28;20673;-69
2022/05/24 07:07:09;;;;;;;3.63;3.33;;;;;;;;;;5032970;28;20670;-70
2022/05/24 07:09:35;;;;;;;2.60;2.40;;;;;;;;;;5035762;28;20281;-68
2022/05/24 07:12:01;;;;;;;3.92;2.88;;;;;;;;;;5031227;28;20663;-68
2022/05/24 07:14:28;;;;;;;4.10;3.20;;;;;;;;;;5033057;28;20190;-68
2022/05/24 07:16:54;;;;;;;3.13;2.80;;;;;;;;;;5027980;28;20186;-68
2022/05/24 07:19:21;;;;;;;3.08;2.88;;;;;;;;;;5033005;28;20207;-69
2022/05/24 07:21:47;;;;;;;3.25;2.95;;;;;;;;;;5029387;28;20187;-70
2022/05/24 07:24:13;;;;;;;3.80;3.38;;;;;;;;;;5035893;28;20190;-69
2022/05/24 07:26:39;;;;;;;3.40;3.10;;;;;;;;;;5030516;28;20194;-71
2022/05/24 07:29:05;;;;;;;3.30;3.00;;;;;;;;;;5033898;28;20289;-70
2022/05/24 07:31:32;;;;;;;4.07;3.28;;;;;;;;;;5039745;28;20611;-68
2022/05/24 07:33:59;;;;;;;4.15;3.35;;;;;;;;;;5040196;28;20178;-68
2022/05/24 07:36:25;;;;;;;2.97;2.78;;;;;;;;;;5031915;28;20211;-69
2022/05/24 07:38:51;;;;;;;3.45;3.17;;;;;;;;;;5037653;28;20765;-70
2022/05/24 07:46:46;;;;;;;3.60;3.25;;;;;;;;;;5032641;28;20228;-70
2022/05/24 07:49:12;;;;;;;3.90;3.60;;;;;;;;;;5039402;28;20206;-68
2022/05/24 07:51:38;;;;;;;3.83;3.53;;;;;;;;;;5039099;28;20179;-68
2022/05/24 07:54:04;;;;;;;3.58;3.15;;;;;;;;;;5035885;28;20225;-68
2022/05/24 07:56:31;;;;;;;3.42;3.13;;;;;;;;;;5032531;28;20179;-70
2022/05/24 07:58:57;;;;;;;3.95;3.08;;;;;;;;;;5034185;28;20218;-69
2022/05/24 08:01:23;;;;;;;3.60;3.20;;;;;;;;;;5037958;28;20446;-69
2022/05/24 08:03:50;;;;;;;3.22;2.92;;;;;;;;;;5029613;28;20187;-68
2022/05/24 08:06:17;;;;;;;2.85;2.65;;;;;;;;;;5030758;28;20187;-69
2022/05/24 08:08:43;;;;;;;3.33;3.13;;;;;;;;;;5035288;28;20233;-70
2022/05/24 08:11:09;;;;;;;3.72;3.42;;;;;;;;;;5029189;28;20195;-71
2022/05/24 08:13:35;;;;;;;3.65;3.35;;;;;;;;;;5006511;28;20245;-68
2022/05/24 08:16:01;;;;;;;4.13;3.83;;;;;;;;;;5024987;28;20262;-69
2022/05/24 08:18:28;;;;;;;3.70;3.40;;;;;;;;;;5032668;28;20620;-69
2022/05/24 08:20:55;;;;;;;5.03;3.90;;;;;;;;;;5029400;28;20174;-69
2022/05/24 08:23:22;;;;;;;3.75;3.38;;;;;;;;;;5009728;28;20646;-70
2022/05/24 08:25:48;;;;;;;4.07;3.20;;;;;;;;;;5034804;28;20197;-67
2022/05/24 08:28:14;;;;;;;3.72;3.42;;;;;;;;;;5030483;28;20658;-70
2022/05/24 08:30:41;;;;;;;4.45;3.33;;;;;;;;;;5028301;28;20193;-68
2022/05/24 08:33:07;;;;;;;3.35;3.05;;;;;;;;;;5036785;28;20324;-70
2022/05/24 08:35:35;;;;;;;5.57;3.10;;;;;;;;;;5032844;28;20234;-68
2022/05/24 08:38:02;;;;;;;3.20;3.00;;;;;;;;;;5027107;28;20749;-68
2022/05/24 08:40:28;;;;;;;3.25;2.95;;;;;;;;;;5026684;28;20187;-70
2022/05/24 08:43:01;;;;;;;3.10;2.67;;;;;;;;;;5044285;28;20654;-69
2022/05/24 08:48:26;;;;;;;3.20;2.90;;;;;;;;;;5028801;28;20212;-70
2022/05/24 08:50:57;;;;;;;3.97;2.85;;;;;;;;;;5033617;28;20221;-70
2022/05/24 08:53:26;;;;;;;2.78;2.58;;;;;;;;;;5038755;28;20195;-69
2022/05/24 08:55:53;;;;;;;3.00;2.70;;;;;;;;;;5028199;28;20194;-69
2022/05/24 08:58:37;;;;;;;4.30;2.80;;;;;;;;;;5024983;28;20223;-69
2022/05/24 09:01:06;;;;;;;3.10;2.80;;;;;;;;;;5033979;28;20247;-70
2022/05/24 09:03:32;;;;;;;2.50;2.20;;;;;;;;;;5024883;28;20293;-70
2022/05/24 09:06:08;;;;;;;2.58;2.38;;;;;;;;;;5033759;28;20263;-69
2022/05/24 09:08:55;;;;;;;3.33;2.40;;;;;;;;;;5023684;28;20209;-69
2022/05/24 09:11:39;;;;;;;3.15;2.83;;;;;;;;;;5023075;28;20204;-69
2022/05/24 09:14:14;;;;;;;3.08;2.58;;;;;;;;;;5029922;28;20646;-70
2022/05/24 09:16:47;;;;;;;8.48;2.47;;;;;;;;;;5023640;28;21115;-69
2022/05/24 09:19:19;;;;;;;2.38;2.17;;;;;;;;;;5028761;28;20606;-70
2022/05/24 09:21:51;;;;;;;1.80;1.70;;;;;;;;;;5030108;28;20187;-69
2022/05/24 09:24:31;;;;;;;2.20;2.00;;;;;;;;;;5027635;28;20174;-70
2022/05/24 09:27:08;;;;;;;1.85;1.60;;;;;;;;;;5025314;28;20277;-70
2022/05/24 09:29:54;;;;;;;2.45;2.08;;;;;;;;;;5024362;28;20202;-69
2022/05/24 09:32:21;;;;;;;1.92;1.50;;;;;;;;;;5031228;28;20181;-69
2022/05/24 09:34:47;;;;;;;2.00;1.60;;;;;;;;;;5023187;28;20276;-69
2022/05/24 09:37:22;;;;;;;1.95;1.60;;;;;;;;;;5024844;28;20796;-69
2022/05/24 09:40:07;;;;;;;3.85;2.13;;;;;;;;;;5028434;28;20182;-69
2022/05/24 09:42:36;;;;;;;3.05;1.85;;;;;;;;;;5033430;28;20182;-68
2022/05/24 09:45:20;;;;;;;2.15;1.88;;;;;;;;;;5038180;28;20516;-68
2022/05/24 09:47:46;;;;;;;4.50;2.00;;;;;;;;;;5031210;28;20490;-68
2022/05/24 09:50:22;;;;;;;2.15;1.98;;;;;;;;;;5031029;28;20662;-68
2022/05/24 09:53:08;;;;;;;2.80;2.00;;;;;;;;;;5037296;28;20193;-67
2022/05/24 09:55:33;;;;;;;2.03;1.90;;;;;;;;;;5017487;28;20199;-69
2022/05/24 09:58:20;;;;;;;2.53;2.15;;;;;;;;;;5034171;28;20529;-67
2022/05/24 10:00:51;;;;;;;3.53;1.77;;;;;;;;;;5034896;28;20186;-67
2022/05/24 10:03:20;;;;;;;2.10;1.48;;;;;;;;;;5033212;28;20191;-67
2022/05/24 10:05:53;;;;;;;1.83;1.73;;;;;;;;;;5040479;28;20236;-68
2022/05/24 10:08:19;;;;;;;1.42;1.30;;;;;;;;;;5044780;28;20240;-67
2022/05/24 10:10:47;;;;;;;2.33;1.27;;;;;;;;;;5037674;28;20178;-67
2022/05/24 10:13:14;;;;;;;1.52;1.42;;;;;;;;;;5034316;28;20529;-68
2022/05/24 10:15:49;;;;;;;1.40;1.30;;;;;;;;;;5035842;28;20197;-67
2022/05/24 10:18:21;;;;;;;2.13;1.40;;;;;;;;;;5018041;28;20214;-68
2022/05/24 10:20:53;;;;;;;1.45;1.35;;;;;;;;;;5035648;28;21100;-68
2022/05/24 10:23:25;;;;;;;1.35;1.25;;;;;;;;;;5038648;28;20273;-67
2022/05/24 10:25:51;;;;;;;2.22;1.50;;;;;;;;;;5034362;28;20190;-68
2022/05/24 10:28:36;;;;;;;1.13;1.02;;;;;;;;;;5032480;28;20230;-68
2022/05/24 10:31:21;;;;;;;1.85;0.70;;;;;;;;;;5041594;28;20664;-69
2022/05/24 10:39:34;;;;;;;1.60;0.95;;;;;;;;;;5036301;28;20220;-67
2022/05/24 10:42:00;;;;;;;0.82;0.73;;;;;;;;;;5038411;28;20174;-67
2022/05/24 10:44:35;;;;;;;1.00;0.90;;;;;;;;;;5030215;28;20231;-67
2022/05/24 10:47:03;;;;;;;1.05;0.95;;;;;;;;;;5024341;28;20193;-66
2022/05/24 10:49:32;;;;;;;0.85;0.80;;;;;;;;;;5027816;28;20202;-66
2022/05/24 10:52:01;;;;;;;1.52;1.00;;;;;;;;;;5006853;28;20576;-68
2022/05/24 10:54:45;;;;;;;1.45;1.30;;;;;;;;;;5026851;28;20231;-68
2022/05/24 10:57:16;;;;;;;1.30;1.20;;;;;;;;;;5036891;28;20278;-77
2022/05/24 11:00:12;;;;;;;1.73;1.20;;;;;;;;;;5036381;28;20651;-78
2022/05/24 11:02:41;;;;;;;3.30;2.10;;;;;;;;;;5015365;28;20183;-77
2022/05/24 11:05:10;;;;;;;1.42;1.10;;;;;;;;;;5036438;28;20183;-77
2022/05/24 11:07:37;;;;;;;1.00;0.90;;;;;;;;;;5036486;28;21062;-76
2022/05/24 11:10:09;;;;;;;0.68;0.68;;;;;;;;;;5018502;28;20546;-78
2022/05/24 11:12:45;;;;;;;0.93;0.65;;;;;;;;;;5037673;28;20187;-78
2022/05/24 11:15:19;;;;;;;1.02;0.75;;;;;;;;;;5017444;28;20661;-76
2022/05/24 11:17:46;;;;;;;0.65;0.65;;;;;;;;;;5038111;28;20217;-78
2022/05/24 11:20:13;;;;;;;2.75;1.00;;;;;;;;;;5038040;28;20175;-76
2022/05/24 11:22:39;;;;;;;0.80;0.60;;;;;;;;;;5035978;28;20258;-76
2022/05/24 11:25:05;;;;;;;0.80;0.57;;;;;;;;;;5036170;28;20317;-75
2022/05/24 11:27:37;;;;;;;1.27;0.90;;;;;;;;;;5015013;28;20178;-76
2022/05/24 11:30:19;;;;;;;0.60;0.60;;;;;;;;;;5037725;28;20197;-74
2022/05/24 11:32:50;;;;;;;0.98;0.65;;;;;;;;;;5035355;28;20186;-77
2022/05/24 11:35:19;;;;;;;1.70;0.60;;;;;;;;;;5017054;28;20541;-76
2022/05/24 11:37:47;;;;;;;0.60;0.60;;;;;;;;;;5034718;28;20284;-76
2022/05/24 11:40:31;;;;;;;0.70;0.70;;;;;;;;;;5038826;28;20181;-77
2022/05/24 11:42:58;;;;;;;0.73;0.70;;;;;;;;;;5035029;28;20257;-76
2022/05/24 11:45:31;;;;;;;0.88;0.80;;;;;;;;;;5017625;28;20652;-75
2022/05/24 11:47:59;;;;;;;1.08;0.60;;;;;;;;;;5027212;28;20206;-75
2022/05/24 11:50:31;;;;;;;0.68;0.65;;;;;;;;;;5035328;28;20665;-77
2022/05/24 11:53:10;;;;;;;1.60;0.70;;;;;;;;;;5036946;28;20190;-76
2022/05/24 11:55:41;;;;;;;0.70;0.50;;;;;;;;;;5034152;28;20247;-74
2022/05/24 11:58:19;;;;;;;0.93;0.70;;;;;;;;;;5017733;28;20217;-75
2022/05/24 12:01:00;;;;;;;0.60;0.60;;;;;;;;;;5035441;28;20194;-76
2022/05/24 12:09:16;;;;;;;2.25;0.70;;;;;;;;;;5035408;28;20249;-75
2022/05/24 12:11:42;;;;;;;0.90;0.80;;;;;;;;;;5034834;28;20182;-75
2022/05/24 12:14:16;;;;;;;0.80;0.60;;;;;;;;;;5035060;28;20186;-74
2022/05/24 12:17:08;;;;;;;1.17;0.63;;;;;;;;;;5035419;28;20206;-74
2022/05/24 12:19:43;;;;;;;0.90;0.57;;;;;;;;;;5031976;28;20748;-75
2022/05/24 12:22:10;;;;;;;0.60;0.50;;;;;;;;;;5031174;28;20273;-76
2022/05/24 12:24:37;;;;;;;1.27;0.60;;;;;;;;;;5032943;28;20221;-74
2022/05/24 12:27:22;;;;;;;0.40;0.40;;;;;;;;;;5018417;28;20303;-76
2022/05/24 12:29:57;;;;;;;0.80;0.40;;;;;;;;;;5036482;28;20712;-75
2022/05/24 12:32:24;;;;;;;0.50;0.50;;;;;;;;;;5034731;28;20208;-74
2022/05/24 12:34:50;;;;;;;0.90;0.50;;;;;;;;;;5036233;28;20179;-74
2022/05/24 12:37:21;;;;;;;0.73;0.47;;;;;;;;;;5033280;28;20209;-76
2022/05/24 12:40:05;;;;;;;0.95;0.60;;;;;;;;;;5035767;28;20178;-78
2022/05/24 12:42:31;;;;;;;0.47;0.47;;;;;;;;;;5036920;28;21154;-76
2022/05/24 12:45:00;;;;;;;2.17;0.63;;;;;;;;;;5033948;28;20182;-76
2022/05/24 12:47:26;;;;;;;0.80;0.60;;;;;;;;;;5033886;28;20190;-76
2022/05/24 12:49:57;;;;;;;1.15;0.68;;;;;;;;;;5018920;28;20252;-77
2022/05/24 12:52:28;;;;;;;0.85;0.50;;;;;;;;;;5034438;28;20206;-76
2022/05/24 12:54:58;;;;;;;1.40;0.57;;;;;;;;;;5020051;28;20213;-78
2022/05/24 12:57:24;;;;;;;0.93;0.63;;;;;;;;;;5034227;28;20286;-74
2022/05/24 12:59:55;;;;;;;1.15;0.60;;;;;;;;;;5015373;28;20737;-76
2022/05/24 13:02:47;;;;;;;0.70;0.52;;;;;;;;;;5018199;28;20213;-76
2022/05/24 13:05:25;;;;;;;1.40;0.60;;;;;;;;;;5035488;28;20198;-77
2022/05/24 13:07:51;;;;;;;0.50;0.40;;;;;;;;;;5035844;28;20262;-78
2022/05/24 13:10:23;;;;;;;1.10;0.50;;;;;;;;;;5035582;28;20185;-77
2022/05/24 13:13:09;;;;;;;0.85;0.52;;;;;;;;;;5034606;28;20182;-77
2022/05/24 13:15:43;;;;;;;1.15;0.68;;;;;;;;;;5034124;28;20265;-77
2022/05/24 13:18:12;;;;;;;1.65;0.70;;;;;;;;;;5034786;28;20218;-73
2022/05/24 13:20:54;;;;;;;0.98;0.60;;;;;;;;;;5035010;28;20183;-77
2022/05/24 13:23:23;;;;;;;0.88;0.60;;;;;;;;;;5034564;28;20178;-75
2022/05/24 13:25:56;;;;;;;0.40;0.30;;;;;;;;;;5034167;28;20217;-75
2022/05/24 13:28:34;;;;;;;1.42;0.75;;;;;;;;;;5034806;28;20199;-75
2022/05/24 13:33:55;;;;;;;1.42;0.77;;;;;;;;;;5031875;28;20232;-74
2022/05/24 13:36:22;;;;;;;1.38;0.60;;;;;;;;;;5034203;28;20190;-75
2022/05/24 13:39:05;;;;;;;1.38;0.60;;;;;;;;;;5035378;28;20215;-75
2022/05/24 13:42:01;;;;;;;1.50;0.70;;;;;;;;;;5032707;28;20189;-75
2022/05/24 13:44:28;;;;;;;2.80;0.68;;;;;;;;;;4993262;28;20194;-75
2022/05/24 13:47:05;;;;;;;3.75;0.77;;;;;;;;;;5033828;28;20189;-77
2022/05/24 13:49:36;;;;;;;0.70;0.47;;;;;;;;;;5033119;28;20214;-73
2022/05/24 13:52:12;;;;;;;1.00;0.60;;;;;;;;;;5035344;28;20730;-75
2022/05/24 13:54:38;;;;;;;0.70;0.57;;;;;;;;;;5032547;28;20237;-73
2022/05/24 13:57:06;;;;;;;3.50;0.85;;;;;;;;;;5031256;28;20189;-76
2022/05/24 13:59:32;;;;;;;2.15;0.43;;;;;;;;;;5031536;28;20214;-73
2022/05/24 14:02:07;;;;;;;1.60;0.50;;;;;;;;;;5030418;28;20245;-75
2022/05/24 14:04:37;;;;;;;1.15;0.65;;;;;;;;;;5027069;28;20181;-75
2022/05/24 14:07:06;;;;;;;1.33;0.55;;;;;;;;;;5030382;28;20191;-74
2022/05/24 14:09:34;;;;;;;1.15;0.50;;;;;;;;;;5028768;28;20207;-75
2022/05/24 14:12:05;;;;;;;2.35;0.60;;;;;;;;;;5030232;28;20563;-75
2022/05/24 14:14:32;;;;;;;1.25;0.47;;;;;;;;;;5031709;28;20756;-75
2022/05/24 14:17:00;;;;;;;1.00;0.63;;;;;;;;;;5032681;28;20187;-74
2022/05/24 14:19:26;;;;;;;1.75;0.68;;;;;;;;;;5033218;28;20225;-76
2022/05/24 14:21:57;;;;;;;2.40;0.50;;;;;;;;;;5012607;28;20285;-76
2022/05/24 14:24:24;;;;;;;0.73;0.63;;;;;;;;;;5032212;28;20579;-76
2022/05/24 14:26:54;;;;;;;0.70;0.52;;;;;;;;;;5032522;28;20273;-76
2022/05/24 14:29:21;;;;;;;1.15;0.60;;;;;;;;;;5032453;28;20252;-75
2022/05/24 14:31:48;;;;;;;1.40;0.65;;;;;;;;;;5035051;28;20182;-74
2022/05/24 14:34:14;;;;;;;1.85;0.82;;;;;;;;;;5030437;28;20174;-75
2022/05/24 14:36:41;;;;;;;1.17;0.57;;;;;;;;;;5014233;28;20179;-75
2022/05/24 14:39:07;;;;;;;0.85;0.70;;;;;;;;;;5037626;28;20217;-76
2022/05/24 14:41:34;;;;;;;1.08;0.60;;;;;;;;;;5036740;28;20183;-75
2022/05/24 14:44:02;;;;;;;1.08;0.60;;;;;;;;;;5033260;28;20184;-74
2022/05/24 14:46:29;;;;;;;1.35;0.52;;;;;;;;;;5036771;28;20569;-74
2022/05/24 14:48:55;;;;;;;1.38;0.68;;;;;;;;;;5034725;28;20202;-73
2022/05/24 14:51:27;;;;;;;1.27;0.70;;;;;;;;;;5036465;28;20691;-76
2022/05/24 14:53:53;;;;;;;1.30;0.80;;;;;;;;;;5039286;28;20688;-75
2022/05/24 14:56:19;;;;;;;0.95;0.60;;;;;;;;;;5038738;28;20260;-74
2022/05/24 14:58:45;;;;;;;1.27;0.65;;;;;;;;;;5031522;28;20693;-75
2022/05/24 15:01:11;;;;;;;1.10;0.68;;;;;;;;;;5035399;28;20190;-77
2022/05/24 15:03:37;;;;;;;1.23;0.98;;;;;;;;;;5032651;28;20251;-75
2022/05/24 15:06:03;;;;;;;0.68;0.55;;;;;;;;;;5035171;28;20701;-77
2022/05/24 15:16:49;;;;;;;0.68;0.60;;;;;;;;;;5036550;28;20235;-73
2022/05/24 15:19:15;;;;;;;1.15;0.52;;;;;;;;;;5034975;28;20301;-75
2022/05/24 15:21:43;;;;;;;0.73;0.60;;;;;;;;;;5035769;28;20271;-74
2022/05/24 15:24:12;;;;;;;2.47;0.70;;;;;;;;;;5036313;28;20193;-76
2022/05/24 15:26:39;;;;;;;0.60;0.57;;;;;;;;;;5033125;28;20182;-76
2022/05/24 15:29:06;;;;;;;0.73;0.68;;;;;;;;;;5031908;28;20292;-73
2022/05/24 15:31:33;;;;;;;0.98;0.63;;;;;;;;;;5039456;28;20188;-75
2022/05/24 15:34:02;;;;;;;0.60;0.60;;;;;;;;;;5034102;28;20652;-76
2022/05/24 15:36:28;;;;;;;0.75;0.50;;;;;;;;;;5036115;28;20276;-73
2022/05/24 15:38:54;;;;;;;1.55;0.55;;;;;;;;;;5036944;28;20584;-76
2022/05/24 15:41:20;;;;;;;0.60;0.45;;;;;;;;;;5035319;28;20201;-73
2022/05/24 15:43:46;;;;;;;0.90;0.80;;;;;;;;;;5017549;28;20179;-77
2022/05/24 15:46:14;;;;;;;1.33;0.70;;;;;;;;;;5036399;28;20190;-73
2022/05/24 15:48:40;;;;;;;0.60;0.60;;;;;;;;;;5029066;28;20580;-73
2022/05/24 15:51:06;;;;;;;0.75;0.60;;;;;;;;;;5031736;28;20349;-75
2022/05/24 15:53:32;;;;;;;1.40;0.50;;;;;;;;;;5034527;28;20182;-76